CET,Max TemperatureF,Mean TemperatureF,Min TemperatureF,Max Dew PointF,MeanDew PointF,Min DewpointF,Max Humidity, Mean Humidity, Min Humidity, Max Sea Level PressureIn, Mean Sea Level PressureIn, Min Sea Level PressureIn, Max VisibilityMiles, Mean VisibilityMiles, Min VisibilityMiles, Max Wind SpeedMPH, Mean Wind SpeedMPH, Max Gust SpeedMPH,PrecipitationIn, CloudCover, Events, WindDirDegrees
2013-1-1,62,54,47,52,46,39,87,68,48,30.15,30.10,30.06,19,6,6,12,5,,0.00,2,,350
2013-1-2,62,56,49,54,43,34,77,59,36,30.30,30.22,30.18,19,7,6,15,9,,0.00,1,,306
2013-1-3,62,56,51,43,39,34,63,50,28,30.63,30.47,30.30,6,6,6,20,11,,0.00,3,,38
2013-1-4,64,56,47,52,45,36,88,65,40,30.66,30.62,30.57,16,7,6,14,9,,0.00,1,,344
2013-1-5,62,53,44,55,47,35,100,73,51,30.58,30.47,30.39,6,6,6,14,7,,0.00,1,,260
2013-1-6,64,54,45,55,46,28,94,70,38,30.39,30.33,30.30,6,6,6,7,4,,0.00,1,,331
2013-1-7,62,54,45,54,45,30,88,67,38,30.32,30.27,30.24,6,6,6,12,5,,0.00,1,,301
2013-1-8,63,55,47,55,45,30,94,64,34,30.36,30.31,30.27,19,19,19,12,6,,0.00,,,257
2013-1-9,61,54,46,52,44,36,82,66,40,30.31,30.27,30.24,12,7,6,16,9,,0.00,1,,284
2013-1-10,63,56,48,59,50,41,100,73,48,30.30,30.22,30.18,12,6,6,9,4,,0.00,1,,231
2013-1-11,64,56,49,57,50,42,100,73,46,30.22,30.17,30.15,19,7,6,8,3,,0.00,1,,330
2013-1-12,63,56,49,57,52,44,94,79,49,30.18,30.12,30.06,19,7,6,14,6,,0.00,1,,296
2013-1-13,63,55,47,45,34,25,87,43,17,30.05,29.96,29.89,19,7,6,24,10,41,0.00,3,,321
2013-1-14,62,57,52,46,34,27,67,40,24,30.15,30.10,30.00,6,6,6,24,16,37,0.00,1,,285
2013-1-15,62,55,48,52,35,23,72,42,16,30.15,30.08,30.01,19,7,6,15,9,24,0.00,1,,294
2013-1-16,59,56,53,48,40,28,67,50,22,30.11,30.00,29.92,19,7,6,12,6,,0.00,2,,254
2013-1-17,68,61,54,54,44,34,88,50,30,29.95,29.93,29.89,6,6,6,28,12,40,0.00,1,,282
2013-1-18,68,62,55,59,53,44,88,72,46,29.95,29.84,29.74,19,7,6,29,10,41,0.00,3,,232
2013-1-19,59,56,53,59,51,43,100,77,55,29.66,29.31,29.21,12,6,2,40,26,58,0.20,4,Rain,237
2013-1-20,61,56,51,45,37,30,67,45,22,29.77,29.65,29.32,6,6,6,25,13,38,0.00,1,,283
2013-1-21,66,58,49,57,42,27,100,57,16,29.95,29.80,29.65,19,7,6,32,15,46,0.00,1,,300
2013-1-22,59,54,48,50,38,29,77,53,25,29.99,29.91,29.80,6,6,6,34,13,50,0.00,2,,283
2013-1-23,60,53,46,41,31,21,71,40,15,30.09,30.02,29.85,6,6,6,26,11,44,0.00,1,,270
2013-1-24,67,58,49,54,49,36,82,66,31,30.03,29.87,29.83,16,7,6,36,16,51,0.00,2,,224
2013-1-25,59,55,51,54,46,34,88,67,26,30.04,29.99,29.94,19,7,6,10,5,,0.00,2,Rain,344
2013-1-26,75,60,46,54,41,19,94,54,7,30.09,30.02,29.95,19,7,6,18,6,31,0.00,1,,271
2013-1-27,62,55,48,54,45,26,88,63,23,30.13,30.07,30.04,,,,16,8,,0.00,,,254
2013-1-28,67,58,50,54,41,27,88,53,19,30.40,30.30,30.12,19,19,19,33,12,50,0.00,,,6
2013-1-29,60,52,44,54,42,20,88,63,23,30.39,30.35,30.33,16,7,6,9,5,,0.00,2,,260
2013-1-30,60,52,43,57,50,36,94,84,65,30.42,30.37,30.33,12,6,4,12,4,,0.00,2,,231
2013-1-31,64,54,45,57,48,30,100,72,30,30.46,30.41,30.39,12,7,6,13,3,,0.00,1,,247